createdAt,value
2022-10-05T00:03:17.692Z,2.10
2022-10-05T00:09:20.893Z,2.20
2022-10-05T00:15:22.910Z,2.10
2022-10-05T00:21:25.760Z,2.10
2022-10-05T00:27:37.499Z,2.10
2022-10-05T00:33:39.076Z,2.00
2022-10-05T00:39:40.643Z,2.13
2022-10-05T00:46:07.677Z,2.10
2022-10-05T00:52:22.817Z,1.88
2022-10-05T00:58:32.599Z,1.98
2022-10-05T01:04:39.830Z,2.00
2022-10-05T01:10:46.537Z,2.10
2022-10-05T01:16:52.117Z,2.30
2022-10-05T01:23:12.522Z,2.00
2022-10-05T01:29:24.746Z,2.58
2022-10-05T01:35:29.195Z,2.20
2022-10-05T01:41:55.682Z,2.20
2022-10-05T01:48:02.928Z,2.10
2022-10-05T01:54:13.501Z,2.10
2022-10-05T02:00:16.793Z,2.08
2022-10-05T02:06:29.024Z,2.10
2022-10-05T02:12:33.619Z,2.20
2022-10-05T02:18:41.828Z,1.97
2022-10-05T02:24:48.154Z,2.00
2022-10-05T02:31:01.484Z,1.83
2022-10-05T02:37:21.264Z,1.97
2022-10-05T02:43:40.127Z,2.20
2022-10-05T02:49:47.675Z,2.20
2022-10-05T02:55:49.336Z,2.03
2022-10-05T03:01:52.595Z,2.20
2022-10-05T03:08:07.517Z,1.90
2022-10-05T03:14:47.763Z,2.20
2022-10-05T03:20:59.069Z,2.40
2022-10-05T03:27:06.653Z,2.30
2022-10-05T03:33:14.451Z,2.67
2022-10-05T03:39:30.411Z,2.23
2022-10-05T03:45:38.717Z,2.40
2022-10-05T03:51:43.829Z,2.60
2022-10-05T03:57:46.629Z,2.60
2022-10-05T04:03:52.350Z,2.65
2022-10-05T04:09:54.616Z,2.73
2022-10-05T04:16:12.735Z,2.30
2022-10-05T04:22:22.521Z,3.43
2022-10-05T04:28:31.188Z,2.70
2022-10-05T04:34:50.921Z,2.38
2022-10-05T04:41:02.710Z,3.20
2022-10-05T04:47:18.436Z,2.35
2022-10-05T04:53:31.498Z,2.87
2022-10-05T04:59:42.548Z,2.72
2022-10-05T05:06:17.027Z,2.72
2022-10-05T05:12:44.420Z,4.27
2022-10-05T05:18:53.579Z,3.05
2022-10-05T05:25:19.276Z,2.73
2022-10-05T05:31:27.885Z,2.67
2022-10-05T05:37:33.593Z,2.63
2022-10-05T05:43:35.538Z,3.00
2022-10-05T05:49:54.327Z,2.95
2022-10-05T05:56:00.584Z,3.03
2022-10-05T06:02:08.113Z,3.08
2022-10-05T06:08:15.894Z,2.90
2022-10-05T06:14:24.919Z,2.60
2022-10-05T06:20:41.665Z,2.88
2022-10-05T06:27:08.334Z,3.20
2022-10-05T06:33:50.192Z,3.08
2022-10-05T06:40:01.562Z,3.20
2022-10-05T06:46:10.747Z,2.80
2022-10-05T06:52:42.285Z,2.90
2022-10-05T06:58:50.126Z,3.03
2022-10-05T07:05:11.133Z,2.95
2022-10-05T07:11:20.753Z,2.72
2022-10-05T07:17:25.978Z,3.17
2022-10-05T07:23:47.982Z,2.97
2022-10-05T07:30:05.063Z,3.40
2022-10-05T07:36:32.478Z,2.92
2022-10-05T07:42:48.815Z,3.22
2022-10-05T07:49:08.979Z,3.60
2022-10-05T07:55:19.215Z,3.10
2022-10-05T08:01:24.789Z,3.20
2022-10-05T08:07:32.702Z,3.30
2022-10-05T08:13:40.351Z,3.83
2022-10-05T08:19:46.822Z,3.63
2022-10-05T08:26:01.146Z,3.40
2022-10-05T08:32:05.320Z,3.10
2022-10-05T08:38:12.799Z,3.08
2022-10-05T08:44:33.335Z,3.13
2022-10-05T08:50:34.813Z,3.33
2022-10-05T08:56:55.165Z,3.40
2022-10-05T09:03:12.576Z,3.40
2022-10-05T09:09:25.099Z,3.40
2022-10-05T09:15:45.509Z,3.50
2022-10-05T09:22:05.989Z,3.23
2022-10-05T09:28:17.826Z,3.00
2022-10-05T09:34:39.677Z,3.00
2022-10-05T09:40:59.794Z,3.47
2022-10-05T09:47:11.512Z,3.35
2022-10-05T09:53:32.828Z,3.10
2022-10-05T09:59:52.892Z,3.15
2022-10-05T10:06:04.976Z,3.40
2022-10-05T10:12:06.484Z,3.72
2022-10-05T10:18:13.821Z,3.28
2022-10-05T10:24:18.507Z,3.40
2022-10-05T10:30:27.644Z,3.75
2022-10-05T10:36:42.927Z,4.10
2022-10-05T10:43:02.058Z,3.30
2022-10-05T10:49:14.146Z,3.13
2022-10-05T10:55:21.731Z,3.47
2022-10-05T11:01:29.232Z,3.42
2022-10-05T11:07:45.851Z,3.20
2022-10-05T11:13:47.755Z,3.50
2022-10-05T11:20:05.442Z,3.50
2022-10-05T11:26:10.159Z,3.10
2022-10-05T11:32:30.392Z,2.83
2022-10-05T11:38:43.703Z,3.20
2022-10-05T11:45:06.213Z,3.30
2022-10-05T11:51:28.711Z,3.22
2022-10-05T11:57:37.630Z,3.40
2022-10-05T12:03:39.265Z,3.35
2022-10-05T12:10:26.201Z,3.40
2022-10-05T12:16:34.748Z,3.10
2022-10-05T12:22:48.578Z,3.33
2022-10-05T12:28:53.414Z,3.20
2022-10-05T12:35:03.185Z,3.20
2022-10-05T12:41:09.843Z,3.40
2022-10-05T12:47:14.873Z,3.28
2022-10-05T12:53:48.747Z,3.40
2022-10-05T13:00:08.461Z,3.47
2022-10-05T13:06:16.503Z,3.88
2022-10-05T13:12:36.097Z,3.10
2022-10-05T13:18:56.170Z,3.72
2022-10-05T13:24:59.287Z,3.15
2022-10-05T13:31:04.798Z,3.30
2022-10-05T13:37:21.298Z,3.30
2022-10-05T13:43:29.395Z,3.20
2022-10-05T13:49:48.213Z,3.20
2022-10-05T13:55:54.688Z,2.78
2022-10-05T14:02:05.423Z,2.40
2022-10-05T14:08:06.959Z,2.70
2022-10-05T14:14:25.590Z,2.43
2022-10-05T14:20:31.795Z,3.40
2022-10-05T14:26:34.563Z,2.65
2022-10-05T14:32:56.146Z,2.60
2022-10-05T14:39:00.516Z,2.80
2022-10-05T14:45:17.639Z,2.63
2022-10-05T14:51:28.221Z,2.58
2022-10-05T14:57:39.802Z,2.40
2022-10-05T15:03:41.467Z,2.40
2022-10-05T15:09:53.336Z,2.50
2022-10-05T15:16:00.303Z,2.30
2022-10-05T15:22:18.721Z,2.28
2022-10-05T15:28:37.471Z,2.35
2022-10-05T15:34:42.433Z,2.17
2022-10-05T15:41:02.486Z,2.30
2022-10-05T15:47:06.715Z,2.20
2022-10-05T15:53:08.188Z,2.40
2022-10-05T15:59:25.867Z,2.50
2022-10-05T16:05:53.259Z,2.37
2022-10-05T16:12:02.182Z,2.47
2022-10-05T16:18:07.326Z,2.27
2022-10-05T16:24:15.559Z,2.65
2022-10-05T16:30:18.557Z,2.40
2022-10-05T16:36:31.758Z,2.53
2022-10-05T16:42:47.763Z,2.88
2022-10-05T16:49:07.940Z,2.80
2022-10-05T16:55:13.965Z,5.25
2022-10-05T17:01:15.568Z,3.00
2022-10-05T17:07:17.261Z,2.90
2022-10-05T17:13:37.571Z,3.38
2022-10-05T17:19:46.571Z,3.47
2022-10-05T17:25:54.869Z,3.22
2022-10-05T17:32:00.661Z,3.10
2022-10-05T17:38:05.355Z,2.80
2022-10-05T17:44:06.943Z,3.20
2022-10-05T17:50:31.433Z,3.20
2022-10-05T17:56:55.732Z,3.28
2022-10-05T18:02:58.242Z,3.63
2022-10-05T18:09:20.982Z,3.33
2022-10-05T18:15:25.396Z,3.35
2022-10-05T18:21:37.101Z,3.30
2022-10-05T18:27:41.682Z,3.65
2022-10-05T18:34:01.505Z,4.22
2022-10-05T18:40:15.008Z,4.10
2022-10-05T18:46:22.360Z,4.30
2022-10-05T18:52:36.232Z,4.20
2022-10-05T18:58:56.685Z,4.80
2022-10-05T19:05:01.743Z,4.25
2022-10-05T19:11:08.051Z,3.80
2022-10-05T19:17:09.598Z,4.10
2022-10-05T19:23:23.620Z,3.47
2022-10-05T19:29:47.336Z,3.33
2022-10-05T19:35:58.450Z,3.50
2022-10-05T19:42:25.359Z,3.70
2022-10-05T19:48:36.652Z,3.80
2022-10-05T19:54:38.227Z,3.83
2022-10-05T20:00:39.772Z,3.40
2022-10-05T20:06:42.192Z,3.83
2022-10-05T20:12:47.755Z,3.93
2022-10-05T20:19:07.922Z,3.47
2022-10-05T20:25:15.635Z,3.13
2022-10-05T20:31:19.986Z,2.90
2022-10-05T20:37:21.862Z,3.40
2022-10-05T20:43:23.399Z,3.17
2022-10-05T20:49:26.339Z,3.22
2022-10-05T20:55:31.555Z,2.97
2022-10-05T21:01:34.168Z,3.30
2022-10-05T21:07:35.769Z,3.10
2022-10-05T21:13:42.341Z,3.00
2022-10-05T21:19:43.958Z,3.22
2022-10-05T21:25:45.759Z,3.03
2022-10-05T21:31:47.333Z,3.25
2022-10-05T21:37:48.909Z,3.50
2022-10-05T21:43:50.452Z,3.33
2022-10-05T21:49:52.030Z,3.53
2022-10-05T21:55:53.550Z,3.30
2022-10-05T22:01:55.066Z,3.28
2022-10-05T22:07:56.571Z,3.70
2022-10-05T22:14:02.473Z,3.40
2022-10-05T22:20:04.426Z,3.72
2022-10-05T22:26:07.655Z,3.10
2022-10-05T22:32:09.275Z,3.50
2022-10-05T22:38:10.861Z,3.30
2022-10-05T22:44:12.405Z,3.30
2022-10-05T22:50:13.952Z,3.30
2022-10-05T22:56:15.654Z,3.40
2022-10-05T23:02:18.617Z,3.25
2022-10-05T23:08:20.158Z,3.65
2022-10-05T23:14:21.654Z,3.30
2022-10-05T23:20:24.519Z,3.30
2022-10-05T23:26:26.467Z,3.80
2022-10-05T23:32:27.980Z,3.72
2022-10-05T23:38:29.981Z,3.42
2022-10-05T23:44:31.784Z,3.20
2022-10-05T23:50:34.000Z,3.25
2022-10-05T23:56:35.481Z,3.30
